Etusivu
METAR-TAF:

METAR-TAF

Lentoasemat :

Changsha, Kiina

Leveyspiiri: 28-11N, Pituuspiiri: 113-13E, korkeus merenpinnasta: 66 m

Tämänhetkinen sää

Tämä raportti tehtiin 37 minuuttia sitten, kello 01.00 UTC
Tuuli 4 kn etelästä/lounaasta, vaihdellen etelän ja lännen/lounaan välillä
Lämpötila 22°C
Kosteus 100%
Ilmanpaine 1011 hPa
Näkyvyys: 4000 m
Hajanaisia pilviä 1200 ft:n korkeudessa
utua,

METAR: ZGHA 170100Z 21002MPS 170V240 4000 BR SCT012 22/22 Q1011 NOSIG

Aika: 09:37 (01:37 UTC)

Sääennuste

Tämä raportti tehtiin 4 tuntia ja 34 minuuttia sitten, kello 21.03 UTC
Ennuste voimassa 17. päivästä klo 00 UTC - 17. päivään klo 24 UTC
Tuuli 4 kn luoteesta
Näkyvyys: 3500 m
Hajanaisia pilviä 4000 ft:n korkeudessa
utua,

TAF: ZGHA 162103Z 1700/1724 32002MPS 3500 BR SCT040 TX23/1707Z TN19/1722Z

Säähavainnot ja -ennusteet yli 4000 lentoasemalta (METAR- ja TAF-raportit).

Käytössä olevat sääasemat on merkitty karttaan keltaisilla ja punaisilla pisteillä.

Aseta hiiri pisteen päälle nähdäksesi sääaseman nimen.

Klikkaa sitten nähdäksesi säähavainnot ja -ennusteet.

Kartan vaihtaminen: klikkaa mustalla rastilla varustettuja vihreitä pisteitä, niin voit zoomata sisään; viivalla varustettua vihreää pistettä, niin voit zoomata ulos tai vihreitä nuolia, niin pääset viereisille kartoille.


METAR-TAF: